createdAt,value
2019-05-15T00:00:41.919Z,68.92
2019-05-15T00:03:11.436Z,69.22
2019-05-15T00:05:40.582Z,70.01
2019-05-15T00:08:09.919Z,70.57
2019-05-15T00:10:39.519Z,70.86
2019-05-15T00:13:09.399Z,70.79
2019-05-15T00:15:40.110Z,71.20
2019-05-15T00:18:09.579Z,71.97
2019-05-15T00:20:39.565Z,72.40
2019-05-15T00:23:08.867Z,72.66
2019-05-15T00:25:39.441Z,72.93
2019-05-15T00:28:09.728Z,73.18
2019-05-15T00:30:39.183Z,73.46
2019-05-15T00:33:09.152Z,73.68
2019-05-15T00:35:39.560Z,73.98
2019-05-15T00:38:09.477Z,74.04
2019-05-15T00:40:39.390Z,74.23
2019-05-15T00:43:09.156Z,74.61
2019-05-15T00:45:38.783Z,74.48
2019-05-15T00:48:09.007Z,75.00
2019-05-15T00:50:39.307Z,74.93
2019-05-15T00:53:08.997Z,74.83
2019-05-15T00:55:39.369Z,74.64
2019-05-15T00:58:08.857Z,74.42
2019-05-15T01:00:44.055Z,74.52
2019-05-15T01:03:13.569Z,74.54
2019-05-15T01:05:42.858Z,74.34
2019-05-15T01:08:12.057Z,74.90
2019-05-15T01:10:41.150Z,75.21
2019-05-15T01:13:10.385Z,75.10
2019-05-15T01:15:39.479Z,74.73
2019-05-15T01:18:09.445Z,74.71
2019-05-15T01:20:39.215Z,73.94
2019-05-15T01:23:09.098Z,73.98
2019-05-15T01:25:39.217Z,74.37
2019-05-15T01:28:09.392Z,74.40
2019-05-15T01:30:39.447Z,74.53
2019-05-15T01:33:08.879Z,74.38
2019-05-15T01:35:38.557Z,74.17
2019-05-15T01:38:08.371Z,74.22
2019-05-15T01:40:38.579Z,74.00
2019-05-15T01:43:09.084Z,74.35
2019-05-15T01:45:39.526Z,74.87
2019-05-15T01:48:08.913Z,75.25
2019-05-15T01:50:39.019Z,75.47
2019-05-15T01:53:08.585Z,76.03
2019-05-15T01:55:39.450Z,76.02
2019-05-15T01:58:09.373Z,76.38
2019-05-15T02:00:39.160Z,77.57
2019-05-15T02:03:09.718Z,77.84
2019-05-15T02:05:39.412Z,77.82
2019-05-15T02:08:08.816Z,77.18
2019-05-15T02:10:39.084Z,77.26
2019-05-15T02:13:08.912Z,77.90
2019-05-15T02:15:39.475Z,78.06
2019-05-15T02:18:09.012Z,78.63
2019-05-15T02:20:39.156Z,79.18
2019-05-15T02:23:11.581Z,79.74
2019-05-15T02:25:39.851Z,79.94
2019-05-15T02:28:09.573Z,79.74
2019-05-15T02:30:40.106Z,80.07
2019-05-15T02:33:10.995Z,80.38
2019-05-15T02:35:40.269Z,80.55
2019-05-15T02:38:12.662Z,80.88
2019-05-15T02:40:41.115Z,81.49
2019-05-15T02:43:10.756Z,81.68
2019-05-15T02:45:42.249Z,82.19
2019-05-15T02:48:11.062Z,82.57
2019-05-15T02:50:40.344Z,82.58
2019-05-15T02:53:10.152Z,82.50
2019-05-15T02:55:40.454Z,82.69
2019-05-15T02:58:10.511Z,82.72
2019-05-15T03:00:47.251Z,83.13
2019-05-15T03:03:10.937Z,82.76
2019-05-15T03:05:41.097Z,83.29
2019-05-15T03:08:10.369Z,83.74
2019-05-15T03:10:40.889Z,83.36
2019-05-15T03:13:10.429Z,83.21
2019-05-15T03:15:40.556Z,84.06
2019-05-15T03:18:10.340Z,84.35
2019-05-15T03:20:40.151Z,83.07
2019-05-15T03:23:10.063Z,84.12
2019-05-15T03:25:40.696Z,84.17
2019-05-15T03:28:10.828Z,84.01
2019-05-15T03:31:13.417Z,83.40
2019-05-15T03:33:19.045Z,82.97
2019-05-15T03:35:44.039Z,82.92
2019-05-15T03:38:12.951Z,82.30
2019-05-15T03:40:42.099Z,81.52
2019-05-15T03:43:11.413Z,80.69
2019-05-15T03:45:40.868Z,80.33
2019-05-15T03:48:10.358Z,80.51
2019-05-15T03:50:40.624Z,80.47
2019-05-15T03:53:10.772Z,80.51
2019-05-15T03:55:40.758Z,80.91
2019-05-15T03:58:10.481Z,81.15
2019-05-15T04:00:40.155Z,81.47
2019-05-15T04:03:10.738Z,82.21
2019-05-15T04:05:40.261Z,82.21
2019-05-15T04:08:10.897Z,82.70
2019-05-15T04:10:40.441Z,81.83
2019-05-15T04:13:10.017Z,82.08
2019-05-15T04:15:40.031Z,83.28
2019-05-15T04:18:09.846Z,83.37
2019-05-15T04:20:40.393Z,83.13
2019-05-15T04:23:10.791Z,83.40
2019-05-15T04:25:41.015Z,82.97
2019-05-15T04:28:12.247Z,82.50
2019-05-15T04:30:41.357Z,82.35
2019-05-15T04:33:10.642Z,82.39
2019-05-15T04:35:40.606Z,82.37
2019-05-15T04:38:09.950Z,82.21
2019-05-15T04:40:41.927Z,82.28
2019-05-15T04:43:11.357Z,82.50
2019-05-15T04:45:40.635Z,82.26
2019-05-15T04:48:10.552Z,82.39
2019-05-15T04:50:40.403Z,82.31
2019-05-15T04:53:10.974Z,82.71
2019-05-15T04:55:40.987Z,82.40
2019-05-15T04:58:10.581Z,82.52
2019-05-15T05:00:53.746Z,82.84
2019-05-15T05:03:22.858Z,82.48
2019-05-15T05:05:52.100Z,82.21
2019-05-15T05:08:21.608Z,82.44
2019-05-15T05:10:51.153Z,82.37
2019-05-15T05:13:20.559Z,82.07
2019-05-15T05:15:50.743Z,79.81
2019-05-15T05:18:20.066Z,73.99
2019-05-15T05:20:49.229Z,57.22
2019-05-15T05:23:19.358Z,45.38
2019-05-15T05:25:49.432Z,41.29
2019-05-15T05:28:18.925Z,38.55
2019-05-15T05:30:48.644Z,36.57
2019-05-15T05:33:18.493Z,34.73
2019-05-15T05:35:51.245Z,34.24
2019-05-15T05:38:20.604Z,35.48
2019-05-15T05:40:50.222Z,37.15
2019-05-15T05:43:19.850Z,39.73
2019-05-15T05:45:49.550Z,42.63
2019-05-15T05:48:19.435Z,45.44
2019-05-15T05:50:49.854Z,48.10
2019-05-15T05:53:21.149Z,49.46
2019-05-15T05:55:53.155Z,53.16
2019-05-15T05:58:21.240Z,54.52
2019-05-15T06:00:50.755Z,54.74
2019-05-15T06:03:20.112Z,56.08
2019-05-15T06:05:49.884Z,57.10
2019-05-15T06:08:19.972Z,57.90
2019-05-15T06:10:50.028Z,57.24
2019-05-15T06:13:20.832Z,55.90
2019-05-15T06:15:51.717Z,56.01
2019-05-15T06:18:21.166Z,56.23
2019-05-15T06:20:50.497Z,55.54
2019-05-15T06:23:25.575Z,55.49
2019-05-15T06:25:50.827Z,55.42
2019-05-15T06:28:20.500Z,54.26
2019-05-15T06:30:49.771Z,54.00
2019-05-15T06:33:19.138Z,51.47
2019-05-15T06:35:49.137Z,51.93
2019-05-15T06:38:19.412Z,51.00
2019-05-15T06:40:49.082Z,50.32
2019-05-15T06:43:19.166Z,50.08
2019-05-15T06:45:49.304Z,49.18
2019-05-15T06:48:18.817Z,49.57
2019-05-15T06:50:49.173Z,48.33
2019-05-15T06:53:19.453Z,47.81
2019-05-15T06:55:49.083Z,47.80
2019-05-15T06:58:19.603Z,46.77
2019-05-15T07:00:49.483Z,46.89
2019-05-15T07:03:25.301Z,46.26
2019-05-15T07:05:50.907Z,45.80
2019-05-15T07:08:20.510Z,45.52
2019-05-15T07:10:49.792Z,46.28
2019-05-15T07:13:19.211Z,45.36
2019-05-15T07:15:49.407Z,45.01
2019-05-15T07:18:19.754Z,43.77
2019-05-15T07:20:49.899Z,43.24
2019-05-15T07:23:19.486Z,42.38
2019-05-15T07:25:49.722Z,42.64
2019-05-15T07:28:19.543Z,43.59
2019-05-15T07:30:49.810Z,41.57
2019-05-15T07:33:34.435Z,41.47
2019-05-15T07:35:50.521Z,41.21
2019-05-15T07:38:19.717Z,41.03
2019-05-15T07:40:56.854Z,41.37
2019-05-15T07:43:19.772Z,41.05
2019-05-15T07:45:54.262Z,40.60
2019-05-15T07:48:19.806Z,39.76
2019-05-15T07:50:49.901Z,39.99
2019-05-15T07:53:20.142Z,39.66
2019-05-15T07:55:50.979Z,40.46
2019-05-15T07:58:21.997Z,39.32
2019-05-15T08:00:51.578Z,37.63
2019-05-15T08:03:20.701Z,38.24
2019-05-15T08:05:58.829Z,38.26
2019-05-15T08:08:20.870Z,39.19
2019-05-15T08:10:50.356Z,38.36
2019-05-15T08:13:19.556Z,37.56
2019-05-15T08:15:49.049Z,38.98
2019-05-15T08:18:18.415Z,38.20
2019-05-15T08:20:49.091Z,37.66
2019-05-15T08:23:19.417Z,36.09
2019-05-15T08:25:48.886Z,35.79
2019-05-15T08:28:19.096Z,36.36
2019-05-15T08:30:49.622Z,36.14
2019-05-15T08:33:19.193Z,34.61
2019-05-15T08:35:51.677Z,35.91
2019-05-15T08:38:19.322Z,35.79
2019-05-15T08:40:49.297Z,35.76
2019-05-15T08:43:18.761Z,34.33
2019-05-15T08:45:49.557Z,36.00
2019-05-15T08:48:19.069Z,35.32
2019-05-15T08:50:48.982Z,35.44
2019-05-15T08:53:19.344Z,35.26
2019-05-15T08:55:48.852Z,33.36
2019-05-15T08:58:20.385Z,34.33
2019-05-15T09:00:52.481Z,34.28
2019-05-15T09:03:19.907Z,32.87
2019-05-15T09:05:49.118Z,33.09
2019-05-15T09:08:19.201Z,33.09
2019-05-15T09:10:50.261Z,31.49
2019-05-15T09:13:19.745Z,31.97
2019-05-15T09:15:49.386Z,31.38
2019-05-15T09:18:20.288Z,31.50
2019-05-15T09:20:49.647Z,32.10
2019-05-15T09:23:19.735Z,35.40
2019-05-15T09:25:49.836Z,33.53
2019-05-15T09:28:19.591Z,32.64
2019-05-15T09:30:48.826Z,33.47
2019-05-15T09:33:19.965Z,33.00
2019-05-15T09:35:49.366Z,32.60
2019-05-15T09:38:19.042Z,32.73
2019-05-15T09:40:50.255Z,32.15
2019-05-15T09:43:19.406Z,33.14
2019-05-15T09:45:49.488Z,31.75
2019-05-15T09:48:19.717Z,31.87
2019-05-15T09:50:49.644Z,31.23
2019-05-15T09:53:29.987Z,32.47
2019-05-15T09:55:59.999Z,32.34
2019-05-15T09:58:30.254Z,31.82
2019-05-15T10:00:59.578Z,33.46
2019-05-15T10:03:34.025Z,34.31
2019-05-15T10:06:03.125Z,32.66
2019-05-15T10:08:32.380Z,32.36
2019-05-15T10:11:01.590Z,31.29
2019-05-15T10:13:30.793Z,31.87
2019-05-15T10:15:59.912Z,30.92
2019-05-15T10:18:29.076Z,30.41
2019-05-15T10:20:58.386Z,29.91
2019-05-15T10:23:29.044Z,30.00
2019-05-15T10:25:59.064Z,30.26
2019-05-15T10:28:29.301Z,30.63
2019-05-15T10:31:00.084Z,30.40
2019-05-15T10:33:29.793Z,30.69
2019-05-15T10:35:59.322Z,30.37
2019-05-15T10:38:28.722Z,29.89
2019-05-15T10:41:08.175Z,30.46
2019-05-15T10:43:28.996Z,30.35
2019-05-15T10:45:58.733Z,29.96
2019-05-15T10:48:29.230Z,31.45
2019-05-15T10:51:06.279Z,30.10
2019-05-15T10:53:29.990Z,28.40
2019-05-15T10:55:59.538Z,28.43
2019-05-15T10:58:30.215Z,29.08
2019-05-15T11:01:02.194Z,28.19
2019-05-15T11:03:34.704Z,28.84
2019-05-15T11:06:01.837Z,27.93
2019-05-15T11:08:31.091Z,27.69
2019-05-15T11:11:00.341Z,28.86
2019-05-15T11:13:29.676Z,29.16
2019-05-15T11:15:58.881Z,28.28
2019-05-15T11:18:30.829Z,28.23
2019-05-15T11:20:59.479Z,28.29
2019-05-15T11:23:29.365Z,29.19
2019-05-15T11:25:58.605Z,29.86
2019-05-15T11:28:31.726Z,30.56
2019-05-15T11:30:59.592Z,29.95
2019-05-15T11:33:29.447Z,27.99
2019-05-15T11:36:05.408Z,27.88
2019-05-15T11:38:29.700Z,26.74
2019-05-15T11:40:59.121Z,28.32
2019-05-15T11:43:29.276Z,28.26
2019-05-15T11:45:59.077Z,27.47
2019-05-15T11:48:29.935Z,28.59
2019-05-15T11:50:59.517Z,28.21
2019-05-15T11:53:28.769Z,27.50
2019-05-15T11:55:59.805Z,27.75
2019-05-15T11:58:28.875Z,28.07
2019-05-15T12:00:58.119Z,28.07
2019-05-15T12:03:29.053Z,27.44
2019-05-15T12:06:02.939Z,28.73
2019-05-15T12:08:29.563Z,29.14
2019-05-15T12:10:59.347Z,28.58
2019-05-15T12:13:28.873Z,27.52
2019-05-15T12:15:58.893Z,27.99
2019-05-15T12:18:28.645Z,28.57
2019-05-15T12:20:59.622Z,28.00
2019-05-15T12:23:29.474Z,29.39
2019-05-15T12:25:59.838Z,29.08
2019-05-15T12:28:29.876Z,28.82
2019-05-15T12:30:59.896Z,27.91
2019-05-15T12:33:29.628Z,28.76
2019-05-15T12:35:58.997Z,28.77
2019-05-15T12:38:29.082Z,27.77
2019-05-15T13:01:14.624Z,27.38
2019-05-15T13:03:38.311Z,28.05
2019-05-15T13:06:08.199Z,27.95
2019-05-15T13:08:38.455Z,26.44
2019-05-15T13:11:09.708Z,26.68
2019-05-15T13:13:38.668Z,26.89
2019-05-15T13:16:07.918Z,26.70
2019-05-15T13:18:38.779Z,27.28
2019-05-15T13:21:08.145Z,27.87
2019-05-15T13:23:38.725Z,28.21
2019-05-15T13:26:21.583Z,29.48
2019-05-15T13:28:38.933Z,29.93
2019-05-15T13:31:09.218Z,29.07
2019-05-15T13:33:38.853Z,28.59
2019-05-15T13:36:08.907Z,28.51
2019-05-15T13:38:38.452Z,29.92
2019-05-15T13:41:09.414Z,30.11
2019-05-15T13:43:38.703Z,30.02
2019-05-15T13:46:08.852Z,29.76
2019-05-15T13:48:38.646Z,28.21
2019-05-15T13:51:08.020Z,29.23
2019-05-15T13:53:38.534Z,30.85
2019-05-15T13:56:07.929Z,30.80
2019-05-15T13:58:38.801Z,30.04
2019-05-15T14:01:09.395Z,30.34
2019-05-15T14:03:39.080Z,30.85
2019-05-15T14:06:09.354Z,30.20
2019-05-15T14:08:39.091Z,30.09
2019-05-15T14:11:08.825Z,30.82
2019-05-15T14:13:40.139Z,30.55
2019-05-15T14:16:09.785Z,31.29
2019-05-15T14:18:39.204Z,31.35
2019-05-15T14:21:08.909Z,29.60
2019-05-15T14:23:38.543Z,31.22
2019-05-15T14:26:17.762Z,31.34
2019-05-15T14:28:39.005Z,30.83
2019-05-15T14:31:09.808Z,30.69
2019-05-15T14:33:39.214Z,31.21
2019-05-15T14:36:08.622Z,31.81
2019-05-15T14:38:38.004Z,31.82
2019-05-15T14:41:08.822Z,31.53
2019-05-15T14:43:38.433Z,31.63
2019-05-15T14:46:08.129Z,32.20
2019-05-15T14:48:38.679Z,32.90
2019-05-15T14:51:08.674Z,32.41
2019-05-15T14:53:38.579Z,32.59
2019-05-15T14:56:09.872Z,33.01
2019-05-15T14:58:40.020Z,34.45
2019-05-15T15:01:12.261Z,33.63
2019-05-15T15:03:40.507Z,33.00
2019-05-15T15:06:09.672Z,33.55
2019-05-15T15:08:38.865Z,34.07
2019-05-15T15:11:08.705Z,33.50
2019-05-15T15:13:38.381Z,33.87
2019-05-15T15:16:08.488Z,33.38
2019-05-15T15:18:38.744Z,33.04
2019-05-15T15:21:08.598Z,32.58
2019-05-15T15:23:38.771Z,32.74
2019-05-15T15:26:08.596Z,31.87
2019-05-15T15:28:39.994Z,32.49
2019-05-15T15:31:08.695Z,32.22
2019-05-15T15:33:39.173Z,32.60
2019-05-15T15:36:08.940Z,31.56
2019-05-15T15:38:43.789Z,31.56
2019-05-15T15:41:09.100Z,31.71
2019-05-15T15:43:38.832Z,31.76
2019-05-15T15:46:08.768Z,31.01
2019-05-15T15:48:39.014Z,30.33
2019-05-15T15:51:09.169Z,30.90
2019-05-15T15:53:39.110Z,29.57
2019-05-15T15:56:10.705Z,30.43
2019-05-15T15:58:39.561Z,30.16
2019-05-15T16:01:09.212Z,30.33
2019-05-15T16:03:38.575Z,29.57
2019-05-15T16:06:07.756Z,27.70
2019-05-15T16:08:51.563Z,28.28
2019-05-15T16:11:08.351Z,28.51
2019-05-15T16:13:38.637Z,28.25
2019-05-15T16:16:08.667Z,28.06
2019-05-15T16:18:38.381Z,28.27
2019-05-15T16:21:08.296Z,28.59
2019-05-15T16:23:38.610Z,28.60
2019-05-15T16:26:09.223Z,29.10
2019-05-15T16:28:38.928Z,29.19
2019-05-15T16:31:08.331Z,28.60
2019-05-15T16:33:39.013Z,28.10
2019-05-15T16:36:08.801Z,27.11
2019-05-15T16:38:38.973Z,27.37
2019-05-15T16:41:09.032Z,27.51
2019-05-15T16:43:38.265Z,28.54
2019-05-15T16:46:09.116Z,28.94
2019-05-15T16:48:39.079Z,28.79
2019-05-15T16:51:09.368Z,30.12
2019-05-15T16:53:38.866Z,30.21
2019-05-15T16:56:08.085Z,30.23
2019-05-15T16:58:38.539Z,30.47
2019-05-15T17:01:07.758Z,30.54
2019-05-15T17:03:38.081Z,30.53
2019-05-15T17:06:09.413Z,30.65
2019-05-15T17:08:38.432Z,31.71
2019-05-15T17:11:08.168Z,32.43
2019-05-15T17:13:39.482Z,33.62
2019-05-15T17:16:08.544Z,34.10
2019-05-15T17:18:38.182Z,34.10
2019-05-15T17:21:10.069Z,33.77
2019-05-15T17:23:39.173Z,33.77
2019-05-15T17:26:08.955Z,33.89
2019-05-15T17:28:38.476Z,34.27
2019-05-15T17:31:09.184Z,34.93
2019-05-15T17:33:38.556Z,35.16
2019-05-15T17:36:07.789Z,35.00
2019-05-15T17:38:38.096Z,35.17
2019-05-15T17:41:08.258Z,35.98
2019-05-15T17:43:37.929Z,35.89
2019-05-15T17:46:09.456Z,35.64
2019-05-15T17:48:39.003Z,35.57
2019-05-15T17:51:09.149Z,36.19
2019-05-15T17:53:38.694Z,35.71
2019-05-15T17:56:07.941Z,36.13
2019-05-15T17:58:38.156Z,35.95
2019-05-15T18:01:08.834Z,36.21
2019-05-15T18:03:39.311Z,36.27
2019-05-15T18:06:08.717Z,35.99
2019-05-15T18:08:39.103Z,35.99
2019-05-15T18:11:08.382Z,36.43
2019-05-15T18:13:38.205Z,36.17
2019-05-15T18:16:13.053Z,36.64
2019-05-15T18:18:38.542Z,36.05
2019-05-15T18:21:08.789Z,36.05
2019-05-15T18:23:39.022Z,36.25
2019-05-15T18:26:09.031Z,36.35
2019-05-15T18:28:38.889Z,36.09
2019-05-15T18:31:09.017Z,36.35
2019-05-15T18:33:46.470Z,36.52
2019-05-15T18:36:09.353Z,36.61
2019-05-15T18:38:38.903Z,37.01
2019-05-15T18:41:11.104Z,37.36
2019-05-15T18:43:40.412Z,37.56
2019-05-15T18:46:09.748Z,37.26
2019-05-15T18:48:39.009Z,36.92
2019-05-15T18:51:08.309Z,37.10
2019-05-15T18:53:38.835Z,37.09
2019-05-15T18:56:09.018Z,37.19
2019-05-15T18:58:38.406Z,37.41
2019-05-15T19:01:09.258Z,37.68
2019-05-15T19:03:38.705Z,37.98
2019-05-15T19:06:08.910Z,38.20
2019-05-15T19:08:38.777Z,38.57
2019-05-15T19:11:08.242Z,38.89
2019-05-15T19:13:38.946Z,39.12
2019-05-15T19:16:08.365Z,38.94
2019-05-15T19:18:38.496Z,39.15
2019-05-15T19:21:08.114Z,39.41
2019-05-15T19:23:38.155Z,40.13
2019-05-15T19:26:09.341Z,40.26
2019-05-15T19:28:39.390Z,40.50
2019-05-15T19:31:09.059Z,41.06
2019-05-15T19:33:41.227Z,41.32
2019-05-15T19:36:09.252Z,41.28
2019-05-15T19:38:38.518Z,41.75
2019-05-15T19:41:09.674Z,42.17
2019-05-15T19:43:39.010Z,42.09
2019-05-15T19:46:08.242Z,42.42
2019-05-15T19:48:38.544Z,42.46
2019-05-15T19:51:08.979Z,42.55
2019-05-15T19:53:38.519Z,42.89
2019-05-15T19:56:08.427Z,43.13
2019-05-15T19:58:37.719Z,43.51
2019-05-15T20:01:08.150Z,43.19
2019-05-15T20:03:49.259Z,43.15
2019-05-15T20:06:08.687Z,43.17
2019-05-15T20:08:38.609Z,43.89
2019-05-15T20:11:10.371Z,44.12
2019-05-15T20:13:38.868Z,44.17
2019-05-15T20:16:08.051Z,44.13
2019-05-15T20:18:38.582Z,44.48
2019-05-15T20:21:08.845Z,44.93
2019-05-15T20:23:38.354Z,45.24
2019-05-15T20:26:08.355Z,45.34
2019-05-15T20:28:39.296Z,45.57
2019-05-15T20:31:08.664Z,45.43
2019-05-15T20:33:37.935Z,45.74
2019-05-15T20:36:09.116Z,45.75
2019-05-15T20:38:39.510Z,45.76
2019-05-15T20:41:08.968Z,46.15
2019-05-15T20:43:38.562Z,46.25
2019-05-15T20:46:08.493Z,46.44
2019-05-15T20:48:38.306Z,46.45
2019-05-15T20:51:07.600Z,46.54
2019-05-15T20:53:38.081Z,46.41
2019-05-15T20:56:08.311Z,46.62
2019-05-15T20:58:38.331Z,46.31
2019-05-15T21:01:09.132Z,46.76
2019-05-15T21:03:38.490Z,47.23
2019-05-15T21:06:09.176Z,47.19
2019-05-15T21:08:39.030Z,47.81
2019-05-15T21:11:11.811Z,48.43
2019-05-15T21:13:39.247Z,48.42
2019-05-15T21:16:08.713Z,48.27
2019-05-15T21:18:38.081Z,48.15
2019-05-15T21:21:10.201Z,48.49
2019-05-15T21:23:38.718Z,48.70
2019-05-15T21:26:10.977Z,48.93
2019-05-15T21:28:39.133Z,49.37
2019-05-15T21:31:08.937Z,49.95
2019-05-15T21:33:38.410Z,49.95
2019-05-15T21:36:08.012Z,50.33
2019-05-15T21:38:38.839Z,50.67
2019-05-15T21:41:08.184Z,51.33
2019-05-15T21:43:37.340Z,51.71
2019-05-15T21:46:08.140Z,51.92
2019-05-15T21:48:38.247Z,51.96
2019-05-15T21:51:11.203Z,52.44
2019-05-15T21:53:38.971Z,52.87
2019-05-15T21:56:08.299Z,53.44
2019-05-15T21:58:37.796Z,53.37
2019-05-15T22:01:10.504Z,53.69
2019-05-15T22:03:39.982Z,53.74
2019-05-15T22:06:09.191Z,53.77
2019-05-15T22:08:38.564Z,54.15
2019-05-15T22:11:07.818Z,55.00
2019-05-15T22:13:39.302Z,55.98
2019-05-15T22:16:08.187Z,56.04
2019-05-15T22:18:38.432Z,56.62
2019-05-15T22:21:08.080Z,57.47
2019-05-15T22:23:38.484Z,57.64
2019-05-15T22:26:07.773Z,58.64
2019-05-15T22:28:38.626Z,59.07
2019-05-15T22:31:08.922Z,59.18
2019-05-15T22:33:38.178Z,59.20
2019-05-15T22:36:08.381Z,59.64
2019-05-15T22:38:37.654Z,60.32
2019-05-15T22:41:10.191Z,60.07
2019-05-15T22:43:39.229Z,59.61
2019-05-15T22:46:10.926Z,60.07
2019-05-15T22:48:39.405Z,60.30
2019-05-15T22:51:08.550Z,61.04
2019-05-15T22:53:38.298Z,61.49
2019-05-15T22:56:09.304Z,62.31
2019-05-15T22:58:38.719Z,62.73
2019-05-15T23:01:09.221Z,62.55
2019-05-15T23:03:39.558Z,63.08
2019-05-15T23:06:08.900Z,63.31
2019-05-15T23:08:38.563Z,63.62
2019-05-15T23:11:09.590Z,63.65
2019-05-15T23:13:38.991Z,63.83
2019-05-15T23:16:08.243Z,64.01
2019-05-15T23:18:37.427Z,64.57
2019-05-15T23:21:08.709Z,65.27
2019-05-15T23:23:38.113Z,65.51
2019-05-15T23:26:07.355Z,66.11
2019-05-15T23:28:38.525Z,67.49
2019-05-15T23:31:08.304Z,67.95
2019-05-15T23:33:38.681Z,68.23
2019-05-15T23:36:07.964Z,67.91
2019-05-15T23:38:38.493Z,68.43
2019-05-15T23:41:08.251Z,68.91
2019-05-15T23:43:38.885Z,69.37
2019-05-15T23:46:08.240Z,69.66
2019-05-15T23:48:38.216Z,69.92
2019-05-15T23:51:08.468Z,70.32
2019-05-15T23:53:37.919Z,70.88
2019-05-15T23:56:09.369Z,70.92
2019-05-15T23:58:38.143Z,71.13
